sensor_id;sensor_type;location;lat;lon;timestamp;pressure;altitude;pressure_sealevel;temperature
65738;BMP280;52478;51.844;6.582;2023-12-29T00:00:09;100483.88;;;21.10
65738;BMP280;52478;51.844;6.582;2023-12-29T00:02:35;100466.66;;;21.12
65738;BMP280;52478;51.844;6.582;2023-12-29T00:05:02;100468.69;;;21.11
65738;BMP280;52478;51.844;6.582;2023-12-29T00:07:29;100469.22;;;21.10
65738;BMP280;52478;51.844;6.582;2023-12-29T00:09:56;100461.09;;;21.12
65738;BMP280;52478;51.844;6.582;2023-12-29T00:12:22;100461.63;;;21.10
65738;BMP280;52478;51.844;6.582;2023-12-29T00:14:49;100465.38;;;21.13
65738;BMP280;52478;51.844;6.582;2023-12-29T00:17:15;100456.78;;;21.11
65738;BMP280;52478;51.844;6.582;2023-12-29T00:19:42;100466.44;;;21.10
65738;BMP280;52478;51.844;6.582;2023-12-29T00:22:08;100454.53;;;21.09
65738;BMP280;52478;51.844;6.582;2023-12-29T00:24:36;100456.06;;;21.10
65738;BMP280;52478;51.844;6.582;2023-12-29T00:27:04;100444.94;;;21.10
65738;BMP280;52478;51.844;6.582;2023-12-29T00:29:31;100451.22;;;21.11
65738;BMP280;52478;51.844;6.582;2023-12-29T00:31:58;100442.66;;;21.09
65738;BMP280;52478;51.844;6.582;2023-12-29T00:34:25;100429.69;;;20.98
65738;BMP280;52478;51.844;6.582;2023-12-29T00:36:52;100432.25;;;21.09
65738;BMP280;52478;51.844;6.582;2023-12-29T00:39:18;100446.75;;;21.08
65738;BMP280;52478;51.844;6.582;2023-12-29T00:41:52;100445.97;;;21.07
65738;BMP280;52478;51.844;6.582;2023-12-29T00:44:19;100443.97;;;21.08
65738;BMP280;52478;51.844;6.582;2023-12-29T00:46:45;100435.63;;;21.08
65738;BMP280;52478;51.844;6.582;2023-12-29T00:49:12;100442.44;;;21.07
65738;BMP280;52478;51.844;6.582;2023-12-29T00:51:39;100430.06;;;21.08
65738;BMP280;52478;51.844;6.582;2023-12-29T00:54:06;100421.84;;;20.97
65738;BMP280;52478;51.844;6.582;2023-12-29T00:56:32;100427.03;;;21.06
65738;BMP280;52478;51.844;6.582;2023-12-29T00:59:00;100421.25;;;21.04
65738;BMP280;52478;51.844;6.582;2023-12-29T01:01:27;100413.66;;;21.04
65738;BMP280;52478;51.844;6.582;2023-12-29T01:03:53;100422.22;;;21.06
65738;BMP280;52478;51.844;6.582;2023-12-29T01:06:20;100412.91;;;21.04
65738;BMP280;52478;51.844;6.582;2023-12-29T01:08:47;100418.66;;;21.06
65738;BMP280;52478;51.844;6.582;2023-12-29T01:11:13;100424.50;;;21.08
65738;BMP280;52478;51.844;6.582;2023-12-29T01:13:40;100416.13;;;21.08
65738;BMP280;52478;51.844;6.582;2023-12-29T01:16:07;100428.53;;;21.07
65738;BMP280;52478;51.844;6.582;2023-12-29T01:18:34;100425.75;;;21.07
65738;BMP280;52478;51.844;6.582;2023-12-29T01:21:01;100427.28;;;21.08
65738;BMP280;52478;51.844;6.582;2023-12-29T01:23:28;100423.72;;;21.07
65738;BMP280;52478;51.844;6.582;2023-12-29T01:25:54;100414.59;;;21.07
65738;BMP280;52478;51.844;6.582;2023-12-29T01:28:21;100425.22;;;21.08
65738;BMP280;52478;51.844;6.582;2023-12-29T01:30:47;100429.28;;;21.07
65738;BMP280;52478;51.844;6.582;2023-12-29T01:33:15;100430.56;;;21.06
65738;BMP280;52478;51.844;6.582;2023-12-29T01:35:42;100424.50;;;21.08
65738;BMP280;52478;51.844;6.582;2023-12-29T01:38:08;100411.81;;;21.07
65738;BMP280;52478;51.844;6.582;2023-12-29T01:40:42;100404.75;;;21.06
65738;BMP280;52478;51.844;6.582;2023-12-29T01:43:09;100391.59;;;21.06
65738;BMP280;52478;51.844;6.582;2023-12-29T01:45:35;100384.00;;;21.07
65738;BMP280;52478;51.844;6.582;2023-12-29T01:48:02;100382.50;;;21.06
65738;BMP280;52478;51.844;6.582;2023-12-29T01:50:30;100393.63;;;21.06
65738;BMP280;52478;51.844;6.582;2023-12-29T01:52:57;100404.75;;;21.06
65738;BMP280;52478;51.844;6.582;2023-12-29T01:55:25;100399.00;;;21.04
65738;BMP280;52478;51.844;6.582;2023-12-29T01:57:53;100398.44;;;21.05
65738;BMP280;52478;51.844;6.582;2023-12-29T02:00:20;100399.19;;;21.06
65738;BMP280;52478;51.844;6.582;2023-12-29T02:02:47;100404.75;;;21.06
65738;BMP280;52478;51.844;6.582;2023-12-29T02:05:14;100421.44;;;21.06
65738;BMP280;52478;51.844;6.582;2023-12-29T02:07:42;100404.00;;;21.05
65738;BMP280;52478;51.844;6.582;2023-12-29T02:10:09;100404.75;;;21.06
65738;BMP280;52478;51.844;6.582;2023-12-29T02:12:39;100399.19;;;21.06
65738;BMP280;52478;51.844;6.582;2023-12-29T02:15:07;100408.81;;;21.05
65738;BMP280;52478;51.844;6.582;2023-12-29T02:17:37;100414.38;;;21.05
65738;BMP280;52478;51.844;6.582;2023-12-29T02:20:05;100398.44;;;21.05
65738;BMP280;52478;51.844;6.582;2023-12-29T02:22:31;100403.25;;;21.05
65738;BMP280;52478;51.844;6.582;2023-12-29T02:24:59;100392.84;;;21.05
65738;BMP280;52478;51.844;6.582;2023-12-29T02:27:34;100391.59;;;21.06
65738;BMP280;52478;51.844;6.582;2023-12-29T02:30:09;100397.69;;;21.05
65738;BMP280;52478;51.844;6.582;2023-12-29T02:32:39;100394.91;;;21.05
65738;BMP280;52478;51.844;6.582;2023-12-29T02:35:08;100394.91;;;21.05
65738;BMP280;52478;51.844;6.582;2023-12-29T02:37:36;100403.25;;;21.05
65738;BMP280;52478;51.844;6.582;2023-12-29T02:40:06;100392.13;;;21.05
65738;BMP280;52478;51.844;6.582;2023-12-29T02:42:33;100391.38;;;21.04
65738;BMP280;52478;51.844;6.582;2023-12-29T02:44:59;100385.81;;;21.04
65738;BMP280;52478;51.844;6.582;2023-12-29T02:47:26;100397.69;;;21.05
65738;BMP280;52478;51.844;6.582;2023-12-29T02:49:53;100391.38;;;21.04
65738;BMP280;52478;51.844;6.582;2023-12-29T02:52:19;100394.91;;;21.05
65738;BMP280;52478;51.844;6.582;2023-12-29T02:54:46;100407.34;;;21.04
65738;BMP280;52478;51.844;6.582;2023-12-29T02:57:14;100380.25;;;21.04
65738;BMP280;52478;51.844;6.582;2023-12-29T02:59:40;100383.03;;;21.04
65738;BMP280;52478;51.844;6.582;2023-12-29T03:02:07;100394.19;;;21.04
65738;BMP280;52478;51.844;6.582;2023-12-29T03:04:33;100383.56;;;21.03
65738;BMP280;52478;51.844;6.582;2023-12-29T03:07:00;100390.66;;;21.04
65738;BMP280;52478;51.844;6.582;2023-12-29T03:09:26;100385.09;;;21.04
65738;BMP280;52478;51.844;6.582;2023-12-29T03:11:53;100396.97;;;21.04
65738;BMP280;52478;51.844;6.582;2023-12-29T03:14:21;100385.81;;;21.04
65738;BMP280;52478;51.844;6.582;2023-12-29T03:16:47;100385.09;;;21.04
65738;BMP280;52478;51.844;6.582;2023-12-29T03:19:14;100387.88;;;21.04
65738;BMP280;52478;51.844;6.582;2023-12-29T03:21:40;100378.75;;;21.03
65738;BMP280;52478;51.844;6.582;2023-12-29T03:24:07;100371.69;;;21.02
65738;BMP280;52478;51.844;6.582;2023-12-29T03:26:33;100372.44;;;21.03
65738;BMP280;52478;51.844;6.582;2023-12-29T03:29:00;100366.88;;;21.03
65738;BMP280;52478;51.844;6.582;2023-12-29T03:31:28;100357.25;;;21.04
65738;BMP280;52478;51.844;6.582;2023-12-29T03:33:54;100357.78;;;21.02
65738;BMP280;52478;51.844;6.582;2023-12-29T03:36:21;100362.06;;;21.03
65738;BMP280;52478;51.844;6.582;2023-12-29T03:38:47;100367.63;;;21.03
65738;BMP280;52478;51.844;6.582;2023-12-29T03:41:14;100355.72;;;21.03
65738;BMP280;52478;51.844;6.582;2023-12-29T03:43:40;100349.44;;;21.02
65738;BMP280;52478;51.844;6.582;2023-12-29T03:46:15;100344.59;;;21.03
65738;BMP280;52478;51.844;6.582;2023-12-29T03:48:43;100358.50;;;21.03
65738;BMP280;52478;51.844;6.582;2023-12-29T03:51:09;100341.81;;;21.03
65738;BMP280;52478;51.844;6.582;2023-12-29T03:53:36;100345.88;;;21.02
65738;BMP280;52478;51.844;6.582;2023-12-29T03:56:04;100343.09;;;21.02
65738;BMP280;52478;51.844;6.582;2023-12-29T03:58:30;100343.09;;;21.02
65738;BMP280;52478;51.844;6.582;2023-12-29T04:00:57;100345.38;;;21.03
65738;BMP280;52478;51.844;6.582;2023-12-29T04:03:24;100346.44;;;21.00
65738;BMP280;52478;51.844;6.582;2023-12-29T04:05:52;100359.59;;;21.00
65738;BMP280;52478;51.844;6.582;2023-12-29T04:08:18;100350.16;;;21.03
65738;BMP280;52478;51.844;6.582;2023-12-29T04:10:45;100358.00;;;21.04
65738;BMP280;52478;51.844;6.582;2023-12-29T04:13:11;100357.44;;;21.06
65738;BMP280;52478;51.844;6.582;2023-12-29T04:15:38;100350.59;;;21.07
65738;BMP280;52478;51.844;6.582;2023-12-29T04:18:04;100364.00;;;21.08
65738;BMP280;52478;51.844;6.582;2023-12-29T04:20:31;100361.44;;;21.10
65738;BMP280;52478;51.844;6.582;2023-12-29T04:22:59;100352.53;;;21.12
65738;BMP280;52478;51.844;6.582;2023-12-29T04:25:25;100350.72;;;21.14
65738;BMP280;52478;51.844;6.582;2023-12-29T04:27:52;100353.50;;;21.14
65738;BMP280;52478;51.844;6.582;2023-12-29T04:30:18;100355.53;;;21.14
65738;BMP280;52478;51.844;6.582;2023-12-29T04:32:45;100350.94;;;21.16
65738;BMP280;52478;51.844;6.582;2023-12-29T04:35:11;100347.41;;;21.16
65738;BMP280;52478;51.844;6.582;2023-12-29T04:37:40;100348.16;;;21.16
65738;BMP280;52478;51.844;6.582;2023-12-29T04:40:09;100355.03;;;21.15
65738;BMP280;52478;51.844;6.582;2023-12-29T04:42:35;100354.25;;;21.15
65738;BMP280;52478;51.844;6.582;2023-12-29T04:45:02;100349.97;;;21.14
65738;BMP280;52478;51.844;6.582;2023-12-29T04:47:29;100354.25;;;21.15
65738;BMP280;52478;51.844;6.582;2023-12-29T04:49:56;100355.53;;;21.14
65738;BMP280;52478;51.844;6.582;2023-12-29T04:52:22;100353.31;;;21.12
65738;BMP280;52478;51.844;6.582;2023-12-29T04:54:49;100355.88;;;21.10
65738;BMP280;52478;51.844;6.582;2023-12-29T04:57:17;100360.66;;;21.10
65738;BMP280;52478;51.844;6.582;2023-12-29T04:59:43;100370.00;;;21.12
65738;BMP280;52478;51.844;6.582;2023-12-29T05:02:10;100377.38;;;21.10
65738;BMP280;52478;51.844;6.582;2023-12-29T05:04:36;100361.44;;;21.10
65738;BMP280;52478;51.844;6.582;2023-12-29T05:07:03;100347.16;;;21.01
65738;BMP280;52478;51.844;6.582;2023-12-29T05:09:29;100373.81;;;21.09
65738;BMP280;52478;51.844;6.582;2023-12-29T05:11:56;100373.63;;;21.07
65738;BMP280;52478;51.844;6.582;2023-12-29T05:14:24;100368.81;;;21.08
65738;BMP280;52478;51.844;6.582;2023-12-29T05:16:51;100370.84;;;21.07
65738;BMP280;52478;51.844;6.582;2023-12-29T05:19:17;100366.03;;;21.08
65738;BMP280;52478;51.844;6.582;2023-12-29T05:21:44;100366.56;;;21.06
65738;BMP280;52478;51.844;6.582;2023-12-29T05:24:11;100367.06;;;21.05
65738;BMP280;52478;51.844;6.582;2023-12-29T05:26:37;100364.28;;;21.05
65738;BMP280;52478;51.844;6.582;2023-12-29T05:29:03;100374.69;;;21.04
65738;BMP280;52478;51.844;6.582;2023-12-29T05:31:31;100375.44;;;21.05
65738;BMP280;52478;51.844;6.582;2023-12-29T05:33:58;100379.53;;;21.04
65738;BMP280;52478;51.844;6.582;2023-12-29T05:36:24;100380.25;;;21.04
65738;BMP280;52478;51.844;6.582;2023-12-29T05:38:51;100385.09;;;21.04
65738;BMP280;52478;51.844;6.582;2023-12-29T05:41:18;100378.00;;;21.03
65738;BMP280;52478;51.844;6.582;2023-12-29T05:43:45;100380.03;;;21.02
65738;BMP280;52478;51.844;6.582;2023-12-29T05:46:12;100391.69;;;21.01
65738;BMP280;52478;51.844;6.582;2023-12-29T05:48:40;100380.56;;;21.01
65738;BMP280;52478;51.844;6.582;2023-12-29T05:51:07;100374.25;;;21.00
65738;BMP280;52478;51.844;6.582;2023-12-29T05:53:35;100374.25;;;21.00
65738;BMP280;52478;51.844;6.582;2023-12-29T05:56:02;100376.06;;;20.98
65738;BMP280;52478;51.844;6.582;2023-12-29T05:58:28;100383.16;;;20.99
65738;BMP280;52478;51.844;6.582;2023-12-29T06:00:55;100387.19;;;20.98
65738;BMP280;52478;51.844;6.582;2023-12-29T06:03:21;100392.00;;;20.97
65738;BMP280;52478;51.844;6.582;2023-12-29T06:05:49;100396.06;;;20.96
65738;BMP280;52478;51.844;6.582;2023-12-29T06:08:16;100392.75;;;20.98
65738;BMP280;52478;51.844;6.582;2023-12-29T06:10:42;100396.81;;;20.97
65738;BMP280;52478;51.844;6.582;2023-12-29T06:13:09;100391.25;;;20.97
65738;BMP280;52478;51.844;6.582;2023-12-29T06:15:35;100389.78;;;20.96
65738;BMP280;52478;51.844;6.582;2023-12-29T06:18:03;100391.06;;;20.95
65738;BMP280;52478;51.844;6.582;2023-12-29T06:20:29;100388.28;;;20.95
65738;BMP280;52478;51.844;6.582;2023-12-29T06:22:57;100396.63;;;20.95
65738;BMP280;52478;51.844;6.582;2023-12-29T06:25:24;100389.78;;;20.96
65738;BMP280;52478;51.844;6.582;2023-12-29T06:27:50;100393.06;;;20.94
65738;BMP280;52478;51.844;6.582;2023-12-29T06:30:17;100395.84;;;20.94
65738;BMP280;52478;51.844;6.582;2023-12-29T06:32:43;100391.78;;;20.95
65738;BMP280;52478;51.844;6.582;2023-12-29T06:35:10;100388.28;;;20.95
65738;BMP280;52478;51.844;6.582;2023-12-29T06:37:36;100386.75;;;20.94
65738;BMP280;52478;51.844;6.582;2023-12-29T06:40:05;100387.00;;;20.96
65738;BMP280;52478;51.844;6.582;2023-12-29T06:42:32;100381.41;;;20.96
65738;BMP280;52478;51.844;6.582;2023-12-29T06:44:58;100388.28;;;20.95
65738;BMP280;52478;51.844;6.582;2023-12-29T06:47:25;100392.31;;;20.94
65738;BMP280;52478;51.844;6.582;2023-12-29T06:49:51;100383.94;;;20.94
65738;BMP280;52478;51.844;6.582;2023-12-29T06:52:18;100391.06;;;20.95
65738;BMP280;52478;51.844;6.582;2023-12-29T06:54:44;100391.78;;;20.95
65738;BMP280;52478;51.844;6.582;2023-12-29T06:57:12;100377.88;;;20.95
65738;BMP280;52478;51.844;6.582;2023-12-29T06:59:41;100384.94;;;20.96
65738;BMP280;52478;51.844;6.582;2023-12-29T07:02:08;100384.41;;;20.98
65738;BMP280;52478;51.844;6.582;2023-12-29T07:04:34;100383.16;;;20.99
65738;BMP280;52478;51.844;6.582;2023-12-29T07:07:01;100380.38;;;20.99
65738;BMP280;52478;51.844;6.582;2023-12-29T07:09:27;100391.69;;;21.01
65738;BMP280;52478;51.844;6.582;2023-12-29T07:11:54;100380.38;;;20.99
65738;BMP280;52478;51.844;6.582;2023-12-29T07:14:22;100386.13;;;21.01
65738;BMP280;52478;51.844;6.582;2023-12-29T07:16:48;100386.88;;;21.01
65738;BMP280;52478;51.844;6.582;2023-12-29T07:19:15;100392.44;;;21.01
65738;BMP280;52478;51.844;6.582;2023-12-29T07:21:41;100398.00;;;21.01
65738;BMP280;52478;51.844;6.582;2023-12-29T07:24:08;100404.31;;;21.02
65738;BMP280;52478;51.844;6.582;2023-12-29T07:26:35;100393.19;;;21.02
65738;BMP280;52478;51.844;6.582;2023-12-29T07:29:01;100393.94;;;21.02
65738;BMP280;52478;51.844;6.582;2023-12-29T07:31:29;100383.56;;;21.03
65738;BMP280;52478;51.844;6.582;2023-12-29T07:33:55;100382.81;;;21.02
65738;BMP280;52478;51.844;6.582;2023-12-29T07:36:22;100380.78;;;21.03
65738;BMP280;52478;51.844;6.582;2023-12-29T07:38:49;100383.34;;;21.01
65738;BMP280;52478;51.844;6.582;2023-12-29T07:41:15;100382.59;;;21.00
65738;BMP280;52478;51.844;6.582;2023-12-29T07:43:42;100384.19;;;20.96
65738;BMP280;52478;51.844;6.582;2023-12-29T07:46:08;100384.41;;;20.98
65738;BMP280;52478;51.844;6.582;2023-12-29T07:48:36;100380.13;;;20.97
65738;BMP280;52478;51.844;6.582;2023-12-29T07:51:05;100379.38;;;20.96
65738;BMP280;52478;51.844;6.582;2023-12-29T07:53:32;100377.13;;;20.95
65738;BMP280;52478;51.844;6.582;2023-12-29T07:55:58;100371.56;;;20.95
65738;BMP280;52478;51.844;6.582;2023-12-29T07:58:25;100381.94;;;20.94
65738;BMP280;52478;51.844;6.582;2023-12-29T08:00:51;100391.78;;;20.95
65738;BMP280;52478;51.844;6.582;2023-12-29T08:03:18;100389.97;;;20.98
65738;BMP280;52478;51.844;6.582;2023-12-29T08:05:46;100377.03;;;21.00
65738;BMP280;52478;51.844;6.582;2023-12-29T08:08:12;100372.22;;;21.01
65738;BMP280;52478;51.844;6.582;2023-12-29T08:10:39;100364.63;;;21.01
65738;BMP280;52478;51.844;6.582;2023-12-29T08:13:06;100365.34;;;21.02
65738;BMP280;52478;51.844;6.582;2023-12-29T08:15:34;100373.97;;;21.04
65738;BMP280;52478;51.844;6.582;2023-12-29T08:18:00;100394.91;;;21.05
65738;BMP280;52478;51.844;6.582;2023-12-29T08:20:27;100392.13;;;21.05
65738;BMP280;52478;51.844;6.582;2023-12-29T08:22:55;100394.91;;;21.05
65738;BMP280;52478;51.844;6.582;2023-12-29T08:25:22;100392.84;;;21.05
65738;BMP280;52478;51.844;6.582;2023-12-29T08:27:48;100397.69;;;21.05
65738;BMP280;52478;51.844;6.582;2023-12-29T08:30:15;100392.34;;;21.07
65738;BMP280;52478;51.844;6.582;2023-12-29T08:32:41;100399.97;;;21.06
65738;BMP280;52478;51.844;6.582;2023-12-29T08:35:08;100395.91;;;21.07
65738;BMP280;52478;51.844;6.582;2023-12-29T08:37:34;100393.88;;;21.08
65738;BMP280;52478;51.844;6.582;2023-12-29T08:40:03;100391.81;;;21.08
65738;BMP280;52478;51.844;6.582;2023-12-29T08:42:31;100387.00;;;21.09
65738;BMP280;52478;51.844;6.582;2023-12-29T08:44:58;100389.78;;;21.09
65738;BMP280;52478;51.844;6.582;2023-12-29T08:47:25;100395.34;;;21.09
65738;BMP280;52478;51.844;6.582;2023-12-29T08:49:51;100405.19;;;21.10
65738;BMP280;52478;51.844;6.582;2023-12-29T08:52:19;100398.13;;;21.09
65738;BMP280;52478;51.844;6.582;2023-12-29T08:54:46;100389.78;;;21.09
65738;BMP280;52478;51.844;6.582;2023-12-29T08:57:14;100408.53;;;21.08
65738;BMP280;52478;51.844;6.582;2023-12-29T08:59:40;100398.13;;;21.09
65738;BMP280;52478;51.844;6.582;2023-12-29T09:02:07;100398.13;;;21.09
65738;BMP280;52478;51.844;6.582;2023-12-29T09:04:34;100407.97;;;21.10
65738;BMP280;52478;51.844;6.582;2023-12-29T09:07:00;100397.91;;;21.07
65738;BMP280;52478;51.844;6.582;2023-12-29T09:09:27;100403.91;;;21.11
65738;BMP280;52478;51.844;6.582;2023-12-29T09:11:53;100401.13;;;21.11
65738;BMP280;52478;51.844;6.582;2023-12-29T09:14:21;100399.63;;;21.10
65738;BMP280;52478;51.844;6.582;2023-12-29T09:16:48;100397.84;;;21.12
65738;BMP280;52478;51.844;6.582;2023-12-29T09:19:14;100394.28;;;21.12
65738;BMP280;52478;51.844;6.582;2023-12-29T09:21:41;100397.84;;;21.12
65738;BMP280;52478;51.844;6.582;2023-12-29T09:24:07;100398.56;;;21.13
65738;BMP280;52478;51.844;6.582;2023-12-29T09:26:34;100394.50;;;21.14
65738;BMP280;52478;51.844;6.582;2023-12-29T09:29:01;100389.69;;;21.14
65738;BMP280;52478;51.844;6.582;2023-12-29T09:31:29;100394.50;;;21.14
65738;BMP280;52478;51.844;6.582;2023-12-29T09:33:55;100402.84;;;21.14
65738;BMP280;52478;51.844;6.582;2023-12-29T09:36:22;100393.00;;;21.13
65738;BMP280;52478;51.844;6.582;2023-12-29T09:38:49;100411.94;;;21.14
65738;BMP280;52478;51.844;6.582;2023-12-29T09:41:16;100400.81;;;21.14
65738;BMP280;52478;51.844;6.582;2023-12-29T09:43:45;100398.78;;;21.15
65738;BMP280;52478;51.844;6.582;2023-12-29T09:46:15;100400.81;;;21.14
65738;BMP280;52478;51.844;6.582;2023-12-29T09:48:45;100407.91;;;21.15
65738;BMP280;52478;51.844;6.582;2023-12-29T09:51:12;100395.25;;;21.14
65738;BMP280;52478;51.844;6.582;2023-12-29T09:53:39;100406.38;;;21.14
65738;BMP280;52478;51.844;6.582;2023-12-29T09:56:08;100413.47;;;21.15
65738;BMP280;52478;51.844;6.582;2023-12-29T09:58:35;100415.50;;;21.15
65738;BMP280;52478;51.844;6.582;2023-12-29T10:01:03;100418.28;;;21.15
65738;BMP280;52478;51.844;6.582;2023-12-29T10:03:30;100419.03;;;21.15
65738;BMP280;52478;51.844;6.582;2023-12-29T10:06:00;100428.13;;;21.16
65738;BMP280;52478;51.844;6.582;2023-12-29T10:08:27;100424.03;;;21.17
65738;BMP280;52478;51.844;6.582;2023-12-29T10:10:55;100419.03;;;21.15
65738;BMP280;52478;51.844;6.582;2023-12-29T10:13:22;100426.06;;;21.16
65738;BMP280;52478;51.844;6.582;2023-12-29T10:15:53;100417.00;;;21.16
65738;BMP280;52478;51.844;6.582;2023-12-29T10:18:29;100413.47;;;21.15
65738;BMP280;52478;51.844;6.582;2023-12-29T10:21:01;100414.72;;;21.14
65738;BMP280;52478;51.844;6.582;2023-12-29T10:23:32;100425.56;;;21.18
65738;BMP280;52478;51.844;6.582;2023-12-29T10:26:03;100411.66;;;21.18
65738;BMP280;52478;51.844;6.582;2023-12-29T10:28:31;100424.03;;;21.17
65738;BMP280;52478;51.844;6.582;2023-12-29T10:30:58;100425.34;;;21.16
65738;BMP280;52478;51.844;6.582;2023-12-29T10:33:25;100428.13;;;21.16
65738;BMP280;52478;51.844;6.582;2023-12-29T10:36:00;100436.47;;;21.16
65738;BMP280;52478;51.844;6.582;2023-12-29T10:38:28;100428.13;;;21.16
65738;BMP280;52478;51.844;6.582;2023-12-29T10:40:55;100434.97;;;21.15
65738;BMP280;52478;51.844;6.582;2023-12-29T10:43:36;100434.97;;;21.15
65738;BMP280;52478;51.844;6.582;2023-12-29T10:46:06;100439.03;;;21.14
65738;BMP280;52478;51.844;6.582;2023-12-29T10:48:33;100430.47;;;21.12
65738;BMP280;52478;51.844;6.582;2023-12-29T10:51:01;100425.66;;;21.12
65738;BMP280;52478;51.844;6.582;2023-12-29T10:53:29;100435.50;;;21.13
65738;BMP280;52478;51.844;6.582;2023-12-29T10:55:56;100427.91;;;21.14
65738;BMP280;52478;51.844;6.582;2023-12-29T10:58:23;100432.72;;;21.13
65738;BMP280;52478;51.844;6.582;2023-12-29T11:00:52;100433.47;;;21.14
65738;BMP280;52478;51.844;6.582;2023-12-29T11:03:19;100426.41;;;21.13
65738;BMP280;52478;51.844;6.582;2023-12-29T11:05:45;100435.50;;;21.13
65738;BMP280;52478;51.844;6.582;2023-12-29T11:08:17;100428.63;;;21.14
65738;BMP280;52478;51.844;6.582;2023-12-29T11:10:45;100433.47;;;21.14
65738;BMP280;52478;51.844;6.582;2023-12-29T11:13:11;100423.94;;;20.78
65738;BMP280;52478;51.844;6.582;2023-12-29T11:15:42;100419.97;;;20.36
65738;BMP280;52478;51.844;6.582;2023-12-29T11:18:09;100428.59;;;19.96
65738;BMP280;52478;51.844;6.582;2023-12-29T11:20:38;100426.19;;;19.39
65738;BMP280;52478;51.844;6.582;2023-12-29T11:23:06;100438.78;;;18.71
65738;BMP280;52478;51.844;6.582;2023-12-29T11:25:35;100430.94;;;18.29
65738;BMP280;52478;51.844;6.582;2023-12-29T11:28:02;100425.03;;;18.03
65738;BMP280;52478;51.844;6.582;2023-12-29T11:30:29;100435.13;;;17.95
65738;BMP280;52478;51.844;6.582;2023-12-29T11:32:59;100423.38;;;18.29
65738;BMP280;52478;51.844;6.582;2023-12-29T11:35:32;100430.38;;;18.47
65738;BMP280;52478;51.844;6.582;2023-12-29T11:38:11;100420.13;;;18.25
65738;BMP280;52478;51.844;6.582;2023-12-29T11:40:41;100421.28;;;17.84
65738;BMP280;52478;51.844;6.582;2023-12-29T11:43:14;100419.94;;;18.12
65738;BMP280;52478;51.844;6.582;2023-12-29T11:45:41;100417.06;;;18.34
65738;BMP280;52478;51.844;6.582;2023-12-29T11:48:08;100420.53;;;18.51
65738;BMP280;52478;51.844;6.582;2023-12-29T11:50:37;100416.59;;;18.71
65738;BMP280;52478;51.844;6.582;2023-12-29T11:53:06;100419.84;;;18.80
65738;BMP280;52478;51.844;6.582;2023-12-29T11:55:34;100413.03;;;18.81
65738;BMP280;52478;51.844;6.582;2023-12-29T11:58:02;100410.00;;;18.85
65738;BMP280;52478;51.844;6.582;2023-12-29T12:00:46;100410.06;;;18.74
65738;BMP280;52478;51.844;6.582;2023-12-29T12:03:14;100415.25;;;18.88
65738;BMP280;52478;51.844;6.582;2023-12-29T12:05:47;100397.56;;;18.91
65738;BMP280;52478;51.844;6.582;2023-12-29T12:08:28;100411.19;;;18.94
65738;BMP280;52478;51.844;6.582;2023-12-29T12:10:55;100414.47;;;18.88
65738;BMP280;52478;51.844;6.582;2023-12-29T12:13:51;100403.38;;;18.88
65738;BMP280;52478;51.844;6.582;2023-12-29T12:16:49;100417.97;;;18.93
65738;BMP280;52478;51.844;6.582;2023-12-29T12:19:16;100407.44;;;18.87
65738;BMP280;52478;51.844;6.582;2023-12-29T12:21:46;100413.50;;;18.85
65738;BMP280;52478;51.844;6.582;2023-12-29T12:24:13;100400.09;;;18.89
65738;BMP280;52478;51.844;6.582;2023-12-29T12:26:40;100415.25;;;18.88
65738;BMP280;52478;51.844;6.582;2023-12-29T12:29:08;100411.69;;;18.93
65738;BMP280;52478;51.844;6.582;2023-12-29T12:31:35;100411.69;;;18.93
65738;BMP280;52478;51.844;6.582;2023-12-29T12:34:02;100416.72;;;18.94
65738;BMP280;52478;51.844;6.582;2023-12-29T12:36:30;100405.69;;;18.84
65738;BMP280;52478;51.844;6.582;2023-12-29T12:38:57;100408.66;;;18.91
65738;BMP280;52478;51.844;6.582;2023-12-29T12:41:25;100389.78;;;18.90
65738;BMP280;52478;51.844;6.582;2023-12-29T12:43:57;100379.47;;;18.85
65738;BMP280;52478;51.844;6.582;2023-12-29T12:46:27;100395.78;;;18.93
65738;BMP280;52478;51.844;6.582;2023-12-29T12:48:54;100382.50;;;18.87
65738;BMP280;52478;51.844;6.582;2023-12-29T12:51:21;100374.66;;;18.91
65738;BMP280;52478;51.844;6.582;2023-12-29T12:53:48;100366.66;;;18.82
65738;BMP280;52478;51.844;6.582;2023-12-29T12:56:16;100360.06;;;18.85
65738;BMP280;52478;51.844;6.582;2023-12-29T12:58:44;100371.09;;;18.90
65738;BMP280;52478;51.844;6.582;2023-12-29T13:01:11;100367.06;;;18.91
65738;BMP280;52478;51.844;6.582;2023-12-29T13:03:39;100368.03;;;18.93
65738;BMP280;52478;51.844;6.582;2023-12-29T13:06:06;100361.25;;;18.94
65738;BMP280;52478;51.844;6.582;2023-12-29T13:08:33;100366.75;;;19.00
65738;BMP280;52478;51.844;6.582;2023-12-29T13:11:00;100379.59;;;18.97
65738;BMP280;52478;51.844;6.582;2023-12-29T13:13:35;100368.03;;;18.93
65738;BMP280;52478;51.844;6.582;2023-12-29T13:16:02;100358.47;;;18.94
65738;BMP280;52478;51.844;6.582;2023-12-29T13:18:29;100371.81;;;18.96
65738;BMP280;52478;51.844;6.582;2023-12-29T13:20:58;100359.50;;;18.92
65738;BMP280;52478;51.844;6.582;2023-12-29T13:23:25;100354.22;;;18.88
65738;BMP280;52478;51.844;6.582;2023-12-29T13:25:54;100375.38;;;18.91
65738;BMP280;52478;51.844;6.582;2023-12-29T13:28:20;100375.38;;;18.91
65738;BMP280;52478;51.844;6.582;2023-12-29T13:30:47;100379.97;;;18.83
65738;BMP280;52478;51.844;6.582;2023-12-29T13:33:17;100378.47;;;18.82
65738;BMP280;52478;51.844;6.582;2023-12-29T13:35:52;100363.16;;;18.76
65738;BMP280;52478;51.844;6.582;2023-12-29T13:38:26;100371.72;;;18.78
65738;BMP280;52478;51.844;6.582;2023-12-29T13:40:57;100356.09;;;18.75
65738;BMP280;52478;51.844;6.582;2023-12-29T13:43:28;100348.03;;;18.77
65738;BMP280;52478;51.844;6.582;2023-12-29T13:45:55;100344.00;;;18.78
65738;BMP280;52478;51.844;6.582;2023-12-29T13:48:22;100342.44;;;18.82
65738;BMP280;52478;51.844;6.582;2023-12-29T13:50:49;100339.94;;;18.79
65738;BMP280;52478;51.844;6.582;2023-12-29T13:53:17;100342.81;;;18.68
65738;BMP280;52478;51.844;6.582;2023-12-29T13:55:46;100338.25;;;18.70
65738;BMP280;52478;51.844;6.582;2023-12-29T13:58:12;100337.47;;;18.70